sensor_id;sensor_type;location;lat;lon;timestamp;pressure;altitude;pressure_sealevel;temperature;humidity
10852;BME280;5479;52.046;6.314;2022-08-16T00:00:36;100448.09;;;22.12;100.00
10852;BME280;5479;52.046;6.314;2022-08-16T00:03:06;100446.72;;;22.16;100.00
10852;BME280;5479;52.046;6.314;2022-08-16T00:05:36;100457.34;;;22.17;100.00
10852;BME280;5479;52.046;6.314;2022-08-16T00:08:04;100465.09;;;22.12;100.00
10852;BME280;5479;52.046;6.314;2022-08-16T00:10:33;100457.53;;;22.08;100.00
10852;BME280;5479;52.046;6.314;2022-08-16T00:13:00;100457.53;;;22.08;100.00
10852;BME280;5479;52.046;6.314;2022-08-16T00:15:33;100464.63;;;22.01;100.00
10852;BME280;5479;52.046;6.314;2022-08-16T00:18:02;100466.81;;;21.97;100.00
10852;BME280;5479;52.046;6.314;2022-08-16T00:20:32;100463.81;;;21.92;100.00
10852;BME280;5479;52.046;6.314;2022-08-16T00:23:02;100468.69;;;21.89;100.00
10852;BME280;5479;52.046;6.314;2022-08-16T00:25:31;100471.88;;;21.84;100.00
10852;BME280;5479;52.046;6.314;2022-08-16T00:27:59;100462.63;;;21.79;100.00
10852;BME280;5479;52.046;6.314;2022-08-16T00:30:27;100460.44;;;21.74;100.00
10852;BME280;5479;52.046;6.314;2022-08-16T00:32:57;100454.03;;;21.67;100.00
10852;BME280;5479;52.046;6.314;2022-08-16T00:35:29;100459.28;;;21.52;100.00
10852;BME280;5479;52.046;6.314;2022-08-16T00:37:59;100466.00;;;21.48;100.00
10852;BME280;5479;52.046;6.314;2022-08-16T00:40:35;100467.34;;;21.52;100.00
10852;BME280;5479;52.046;6.314;2022-08-16T00:43:06;100470.72;;;21.54;100.00
10852;BME280;5479;52.046;6.314;2022-08-16T00:45:40;100466.84;;;21.49;100.00
10852;BME280;5479;52.046;6.314;2022-08-16T00:48:15;100472.91;;;21.43;100.00
10852;BME280;5479;52.046;6.314;2022-08-16T00:50:44;100469.06;;;21.37;100.00
10852;BME280;5479;52.046;6.314;2022-08-16T00:53:13;100461.63;;;21.23;100.00
10852;BME280;5479;52.046;6.314;2022-08-16T00:55:49;100466.34;;;21.13;100.00
10852;BME280;5479;52.046;6.314;2022-08-16T00:58:20;100467.97;;;21.06;100.00
10852;BME280;5479;52.046;6.314;2022-08-16T01:00:49;100465.59;;;21.03;100.00
10852;BME280;5479;52.046;6.314;2022-08-16T01:03:22;100463.75;;;20.95;100.00
10852;BME280;5479;52.046;6.314;2022-08-16T01:05:51;100458.19;;;20.89;100.00
10852;BME280;5479;52.046;6.314;2022-08-16T01:08:21;100467.94;;;20.90;100.00
10852;BME280;5479;52.046;6.314;2022-08-16T01:10:52;100467.59;;;20.85;100.00
10852;BME280;5479;52.046;6.314;2022-08-16T01:13:23;100462.38;;;20.83;100.00
10852;BME280;5479;52.046;6.314;2022-08-16T01:15:55;100457.81;;;20.76;100.00
10852;BME280;5479;52.046;6.314;2022-08-16T01:18:27;100463.69;;;20.71;100.00
10852;BME280;5479;52.046;6.314;2022-08-16T01:21:18;100459.97;;;20.64;100.00
10852;BME280;5479;52.046;6.314;2022-08-16T01:24:09;100455.75;;;20.62;100.00
10852;BME280;5479;52.046;6.314;2022-08-16T01:26:40;100456.09;;;20.59;100.00
10852;BME280;5479;52.046;6.314;2022-08-16T01:29:13;100453.03;;;20.54;100.00
10852;BME280;5479;52.046;6.314;2022-08-16T01:31:43;100460.75;;;20.49;100.00
10852;BME280;5479;52.046;6.314;2022-08-16T01:34:12;100463.78;;;20.45;100.00
10852;BME280;5479;52.046;6.314;2022-08-16T01:36:43;100464.09;;;20.42;100.00
10852;BME280;5479;52.046;6.314;2022-08-16T01:39:15;100460.56;;;20.42;100.00
10852;BME280;5479;52.046;6.314;2022-08-16T01:41:44;100459.34;;;20.36;100.00
10852;BME280;5479;52.046;6.314;2022-08-16T01:44:12;100465.41;;;20.30;100.00
10852;BME280;5479;52.046;6.314;2022-08-16T01:46:43;100471.22;;;20.26;100.00
10852;BME280;5479;52.046;6.314;2022-08-16T01:49:17;100472.69;;;20.20;100.00
10852;BME280;5479;52.046;6.314;2022-08-16T01:51:47;100476.72;;;20.16;100.00
10852;BME280;5479;52.046;6.314;2022-08-16T01:54:18;100469.81;;;20.14;100.00
10852;BME280;5479;52.046;6.314;2022-08-16T01:56:47;100469.44;;;20.09;100.00
10852;BME280;5479;52.046;6.314;2022-08-16T01:59:16;100458.84;;;20.07;100.00
10852;BME280;5479;52.046;6.314;2022-08-16T02:01:44;100464.88;;;20.09;100.00
10852;BME280;5479;52.046;6.314;2022-08-16T02:04:12;100457.84;;;20.08;100.00
10852;BME280;5479;52.046;6.314;2022-08-16T02:06:41;100463.06;;;20.10;100.00
10852;BME280;5479;52.046;6.314;2022-08-16T02:09:15;100458.84;;;20.07;100.00
10852;BME280;5479;52.046;6.314;2022-08-16T02:11:54;100466.22;;;20.05;100.00
10852;BME280;5479;52.046;6.314;2022-08-16T02:14:27;100468.06;;;20.05;100.00
10852;BME280;5479;52.046;6.314;2022-08-16T02:17:02;100462.38;;;20.08;100.00
10852;BME280;5479;52.046;6.314;2022-08-16T02:19:33;100464.06;;;20.09;100.00
10852;BME280;5479;52.046;6.314;2022-08-16T02:22:02;100468.28;;;20.11;100.00
10852;BME280;5479;52.046;6.314;2022-08-16T02:24:31;100469.94;;;20.12;100.00
10852;BME280;5479;52.046;6.314;2022-08-16T02:27:04;100468.66;;;20.16;100.00
10852;BME280;5479;52.046;6.314;2022-08-16T02:29:32;100469.94;;;20.12;100.00
10852;BME280;5479;52.046;6.314;2022-08-16T02:32:09;100463.84;;;20.02;100.00
10852;BME280;5479;52.046;6.314;2022-08-16T02:34:38;100464.16;;;19.99;100.00
10852;BME280;5479;52.046;6.314;2022-08-16T02:37:06;100464.13;;;19.91;100.00
10852;BME280;5479;52.046;6.314;2022-08-16T02:39:34;100462.06;;;19.85;100.00
10852;BME280;5479;52.046;6.314;2022-08-16T02:42:07;100464.00;;;19.75;100.00
10852;BME280;5479;52.046;6.314;2022-08-16T02:44:37;100463.66;;;19.70;100.00
10852;BME280;5479;52.046;6.314;2022-08-16T02:47:08;100453.38;;;19.65;100.00
10852;BME280;5479;52.046;6.314;2022-08-16T02:49:39;100464.25;;;19.64;100.00
10852;BME280;5479;52.046;6.314;2022-08-16T02:52:10;100456.00;;;19.57;100.00
10852;BME280;5479;52.046;6.314;2022-08-16T02:54:38;100456.78;;;19.50;100.00
10852;BME280;5479;52.046;6.314;2022-08-16T02:57:09;100460.63;;;19.47;100.00
10852;BME280;5479;52.046;6.314;2022-08-16T02:59:38;100453.41;;;19.48;100.00
10852;BME280;5479;52.046;6.314;2022-08-16T03:02:08;100451.88;;;19.45;100.00
10852;BME280;5479;52.046;6.314;2022-08-16T03:04:38;100450.66;;;19.40;100.00
10852;BME280;5479;52.046;6.314;2022-08-16T03:07:06;100450.66;;;19.40;100.00
10852;BME280;5479;52.046;6.314;2022-08-16T03:09:35;100455.59;;;19.35;100.00
10852;BME280;5479;52.046;6.314;2022-08-16T03:12:06;100443.34;;;19.32;100.00
10852;BME280;5479;52.046;6.314;2022-08-16T03:14:36;100453.03;;;19.25;100.00
10852;BME280;5479;52.046;6.314;2022-08-16T03:17:07;100459.53;;;19.22;100.00
10852;BME280;5479;52.046;6.314;2022-08-16T03:19:37;100454.19;;;19.22;100.00
10852;BME280;5479;52.046;6.314;2022-08-16T03:22:06;100452.47;;;19.21;100.00
10852;BME280;5479;52.046;6.314;2022-08-16T03:24:33;100454.78;;;19.16;100.00
10852;BME280;5479;52.046;6.314;2022-08-16T03:27:01;100458.78;;;19.12;100.00
10852;BME280;5479;52.046;6.314;2022-08-16T03:29:32;100459.41;;;19.06;100.00
10852;BME280;5479;52.046;6.314;2022-08-16T03:32:02;100462.84;;;18.99;100.00
10852;BME280;5479;52.046;6.314;2022-08-16T03:34:31;100459.78;;;18.94;100.00
10852;BME280;5479;52.046;6.314;2022-08-16T03:37:00;100464.59;;;18.90;100.00
10852;BME280;5479;52.046;6.314;2022-08-16T03:39:30;100456.69;;;18.89;100.00
10852;BME280;5479;52.046;6.314;2022-08-16T03:41:59;100463.19;;;18.86;100.00
10852;BME280;5479;52.046;6.314;2022-08-16T03:44:30;100463.19;;;18.86;100.00
10852;BME280;5479;52.046;6.314;2022-08-16T03:46:59;100458.16;;;18.83;100.00
10852;BME280;5479;52.046;6.314;2022-08-16T03:49:29;100460.13;;;18.81;100.00
10852;BME280;5479;52.046;6.314;2022-08-16T03:51:58;100463.66;;;18.82;100.00
10852;BME280;5479;52.046;6.314;2022-08-16T03:54:26;100455.91;;;18.79;100.00
10852;BME280;5479;52.046;6.314;2022-08-16T03:56:54;100464.13;;;18.77;100.00
10852;BME280;5479;52.046;6.314;2022-08-16T03:59:22;100462.44;;;18.76;100.00
10852;BME280;5479;52.046;6.314;2022-08-16T04:01:50;100459.91;;;18.75;100.00
10852;BME280;5479;52.046;6.314;2022-08-16T04:04:19;100456.69;;;18.71;100.00
10852;BME280;5479;52.046;6.314;2022-08-16T04:06:49;100454.28;;;18.68;100.00
10852;BME280;5479;52.046;6.314;2022-08-16T04:09:18;100459.94;;;18.65;100.00
10852;BME280;5479;52.046;6.314;2022-08-16T04:11:46;100465.88;;;18.68;100.00
10852;BME280;5479;52.046;6.314;2022-08-16T04:14:16;100472.09;;;18.69;100.00
10852;BME280;5479;52.046;6.314;2022-08-16T04:16:44;100472.22;;;18.67;100.00
10852;BME280;5479;52.046;6.314;2022-08-16T04:19:15;100476.66;;;18.59;100.00
10852;BME280;5479;52.046;6.314;2022-08-16T04:21:43;100469.91;;;18.55;100.00
10852;BME280;5479;52.046;6.314;2022-08-16T04:24:18;100476.41;;;18.52;100.00
10852;BME280;5479;52.046;6.314;2022-08-16T04:26:46;100479.81;;;18.45;100.00
10852;BME280;5479;52.046;6.314;2022-08-16T04:29:14;100483.19;;;18.47;100.00
10852;BME280;5479;52.046;6.314;2022-08-16T04:31:45;100493.63;;;18.50;100.00
10852;BME280;5479;52.046;6.314;2022-08-16T04:34:13;100499.97;;;18.49;100.00
10852;BME280;5479;52.046;6.314;2022-08-16T04:36:42;100504.38;;;18.50;100.00
10852;BME280;5479;52.046;6.314;2022-08-16T04:39:10;100500.69;;;18.51;100.00
10852;BME280;5479;52.046;6.314;2022-08-16T04:41:39;100505.06;;;18.52;100.00
10852;BME280;5479;52.046;6.314;2022-08-16T04:44:08;100512.81;;;18.55;100.00
10852;BME280;5479;52.046;6.314;2022-08-16T04:46:37;100515.75;;;18.61;100.00
10852;BME280;5479;52.046;6.314;2022-08-16T04:49:06;100518.53;;;18.70;100.00
10852;BME280;5479;52.046;6.314;2022-08-16T04:51:35;100525.97;;;18.76;100.00
10852;BME280;5479;52.046;6.314;2022-08-16T04:54:07;100526.22;;;18.82;100.00
10852;BME280;5479;52.046;6.314;2022-08-16T04:56:37;100525.47;;;18.90;100.00
10852;BME280;5479;52.046;6.314;2022-08-16T04:59:06;100525.53;;;18.98;100.00
10852;BME280;5479;52.046;6.314;2022-08-16T05:01:36;100523.56;;;19.00;100.00
10852;BME280;5479;52.046;6.314;2022-08-16T05:04:04;100529.75;;;19.00;100.00
10852;BME280;5479;52.046;6.314;2022-08-16T05:06:32;100532.44;;;19.00;100.00
10852;BME280;5479;52.046;6.314;2022-08-16T05:09:02;100530.41;;;19.12;100.00
10852;BME280;5479;52.046;6.314;2022-08-16T05:11:31;100537.31;;;19.14;100.00
10852;BME280;5479;52.046;6.314;2022-08-16T05:14:01;100538.28;;;19.13;100.00
10852;BME280;5479;52.046;6.314;2022-08-16T05:16:32;100535.31;;;19.16;100.00
10852;BME280;5479;52.046;6.314;2022-08-16T05:19:00;100543.16;;;19.27;100.00
10852;BME280;5479;52.046;6.314;2022-08-16T05:21:31;100547.75;;;19.35;100.00
10852;BME280;5479;52.046;6.314;2022-08-16T05:24:10;100543.03;;;19.47;100.00
10852;BME280;5479;52.046;6.314;2022-08-16T05:26:38;100548.31;;;19.56;100.00
10852;BME280;5479;52.046;6.314;2022-08-16T05:29:06;100558.28;;;19.64;100.00
10852;BME280;5479;52.046;6.314;2022-08-16T05:31:37;100552.47;;;19.68;100.00
10852;BME280;5479;52.046;6.314;2022-08-16T05:34:05;100552.38;;;19.78;100.00
10852;BME280;5479;52.046;6.314;2022-08-16T05:36:33;100553.09;;;19.88;100.00
10852;BME280;5479;52.046;6.314;2022-08-16T05:39:05;100551.63;;;19.94;100.00
10852;BME280;5479;52.046;6.314;2022-08-16T05:41:35;100552.88;;;19.99;100.00
10852;BME280;5479;52.046;6.314;2022-08-16T05:44:04;100554.94;;;20.05;100.00
10852;BME280;5479;52.046;6.314;2022-08-16T05:46:44;100553.78;;;20.08;100.00
10852;BME280;5479;52.046;6.314;2022-08-16T05:49:13;100560.72;;;20.18;100.00
10852;BME280;5479;52.046;6.314;2022-08-16T05:51:43;100561.81;;;20.25;100.00
10852;BME280;5479;52.046;6.314;2022-08-16T05:54:12;100571.56;;;20.26;100.00
10852;BME280;5479;52.046;6.314;2022-08-16T05:56:44;100567.94;;;20.35;100.00
10852;BME280;5479;52.046;6.314;2022-08-16T05:59:15;100562.22;;;20.38;100.00
10852;BME280;5479;52.046;6.314;2022-08-16T06:01:46;100566.97;;;20.44;100.00
10852;BME280;5479;52.046;6.314;2022-08-16T06:04:17;100563.16;;;20.55;100.00
10852;BME280;5479;52.046;6.314;2022-08-16T06:06:47;100566.13;;;20.44;100.00
10852;BME280;5479;52.046;6.314;2022-08-16T06:09:16;100558.47;;;20.57;100.00
10852;BME280;5479;52.046;6.314;2022-08-16T06:11:45;100556.94;;;20.55;100.00
10852;BME280;5479;52.046;6.314;2022-08-16T06:14:13;100558.22;;;20.42;100.00
10852;BME280;5479;52.046;6.314;2022-08-16T06:16:41;100565.69;;;20.57;100.00
10852;BME280;5479;52.046;6.314;2022-08-16T06:19:11;100562.16;;;20.56;100.00
10852;BME280;5479;52.046;6.314;2022-08-16T06:21:39;100565.97;;;20.79;100.00
10852;BME280;5479;52.046;6.314;2022-08-16T06:24:08;100563.84;;;20.91;100.00
10852;BME280;5479;52.046;6.314;2022-08-16T06:26:37;100563.19;;;20.97;100.00
10852;BME280;5479;52.046;6.314;2022-08-16T06:29:06;100572.03;;;21.15;100.00
10852;BME280;5479;52.046;6.314;2022-08-16T06:31:34;100560.41;;;21.15;100.00
10852;BME280;5479;52.046;6.314;2022-08-16T06:34:02;100560.06;;;21.18;100.00
10852;BME280;5479;52.046;6.314;2022-08-16T06:36:32;100563.75;;;21.17;100.00
10852;BME280;5479;52.046;6.314;2022-08-16T06:39:02;100566.69;;;21.31;100.00
10852;BME280;5479;52.046;6.314;2022-08-16T06:41:30;100570.91;;;21.50;100.00
10852;BME280;5479;52.046;6.314;2022-08-16T06:44:01;100572.44;;;21.60;100.00
10852;BME280;5479;52.046;6.314;2022-08-16T06:46:34;100563.22;;;21.87;100.00
10852;BME280;5479;52.046;6.314;2022-08-16T06:49:05;100561.66;;;22.33;100.00
10852;BME280;5479;52.046;6.314;2022-08-16T06:51:39;100564.88;;;22.83;100.00
10852;BME280;5479;52.046;6.314;2022-08-16T06:54:09;100568.28;;;24.30;100.00
10852;BME280;5479;52.046;6.314;2022-08-16T06:56:38;100562.78;;;25.47;93.21
10852;BME280;5479;52.046;6.314;2022-08-16T06:59:08;100559.38;;;26.29;88.07
10852;BME280;5479;52.046;6.314;2022-08-16T07:01:36;100563.34;;;26.95;82.43
10852;BME280;5479;52.046;6.314;2022-08-16T07:04:05;100557.09;;;27.82;73.84
10852;BME280;5479;52.046;6.314;2022-08-16T07:06:34;100562.50;;;28.60;69.61
10852;BME280;5479;52.046;6.314;2022-08-16T07:09:10;100565.28;;;28.34;66.81
10852;BME280;5479;52.046;6.314;2022-08-16T07:11:38;100567.81;;;29.13;64.07
10852;BME280;5479;52.046;6.314;2022-08-16T07:14:08;100566.56;;;30.34;59.24
10852;BME280;5479;52.046;6.314;2022-08-16T07:16:39;100558.69;;;31.53;53.10
10852;BME280;5479;52.046;6.314;2022-08-16T07:19:09;100568.69;;;31.59;51.08
10852;BME280;5479;52.046;6.314;2022-08-16T07:21:37;100566.81;;;32.12;49.29
10852;BME280;5479;52.046;6.314;2022-08-16T07:24:10;100569.19;;;31.38;50.00
10852;BME280;5479;52.046;6.314;2022-08-16T07:26:39;100565.13;;;32.35;46.44
10852;BME280;5479;52.046;6.314;2022-08-16T07:29:10;100562.63;;;32.21;47.51
10852;BME280;5479;52.046;6.314;2022-08-16T07:31:38;100569.41;;;32.89;45.36
10852;BME280;5479;52.046;6.314;2022-08-16T07:34:06;100575.56;;;33.07;44.05
10852;BME280;5479;52.046;6.314;2022-08-16T07:36:34;100579.28;;;33.01;43.98
10852;BME280;5479;52.046;6.314;2022-08-16T07:39:03;100574.88;;;33.00;42.88
10852;BME280;5479;52.046;6.314;2022-08-16T07:41:33;100583.97;;;32.19;44.72
10852;BME280;5479;52.046;6.314;2022-08-16T07:44:02;100588.50;;;32.72;44.85
10852;BME280;5479;52.046;6.314;2022-08-16T07:46:31;100591.06;;;33.13;43.08
10852;BME280;5479;52.046;6.314;2022-08-16T07:48:59;100587.19;;;33.66;42.08
10852;BME280;5479;52.046;6.314;2022-08-16T07:51:35;100595.78;;;33.29;42.89
10852;BME280;5479;52.046;6.314;2022-08-16T07:54:04;100599.28;;;33.25;42.71
10852;BME280;5479;52.046;6.314;2022-08-16T07:56:35;100598.56;;;33.18;42.47
10852;BME280;5479;52.046;6.314;2022-08-16T07:59:04;100599.22;;;32.85;44.36
10852;BME280;5479;52.046;6.314;2022-08-16T08:01:33;100591.00;;;33.36;42.67
10852;BME280;5479;52.046;6.314;2022-08-16T08:04:02;100599.22;;;32.39;45.04
10852;BME280;5479;52.046;6.314;2022-08-16T08:06:31;100606.97;;;33.11;44.32
10852;BME280;5479;52.046;6.314;2022-08-16T08:08:59;100597.00;;;34.23;40.29
10852;BME280;5479;52.046;6.314;2022-08-16T08:11:29;100605.31;;;34.45;40.22
10852;BME280;5479;52.046;6.314;2022-08-16T08:13:59;100601.59;;;34.89;38.41
10852;BME280;5479;52.046;6.314;2022-08-16T08:16:30;100599.34;;;34.86;37.77
10852;BME280;5479;52.046;6.314;2022-08-16T08:18:59;100614.41;;;34.62;38.68
10852;BME280;5479;52.046;6.314;2022-08-16T08:21:32;100613.31;;;34.63;37.79
10852;BME280;5479;52.046;6.314;2022-08-16T08:24:04;100606.66;;;34.09;39.24
10852;BME280;5479;52.046;6.314;2022-08-16T08:26:34;100617.81;;;34.19;39.29
10852;BME280;5479;52.046;6.314;2022-08-16T08:29:05;100615.16;;;34.58;38.51
10852;BME280;5479;52.046;6.314;2022-08-16T08:31:33;100617.06;;;34.95;37.86
10852;BME280;5479;52.046;6.314;2022-08-16T08:34:02;100624.94;;;34.04;39.16
10852;BME280;5479;52.046;6.314;2022-08-16T08:36:32;100629.50;;;34.43;38.94
10852;BME280;5479;52.046;6.314;2022-08-16T08:39:01;100619.72;;;34.52;38.10
10852;BME280;5479;52.046;6.314;2022-08-16T08:41:30;100631.09;;;33.94;38.63
10852;BME280;5479;52.046;6.314;2022-08-16T08:43:58;100626.59;;;34.16;38.76
10852;BME280;5479;52.046;6.314;2022-08-16T08:46:27;100626.16;;;34.08;38.89
10852;BME280;5479;52.046;6.314;2022-08-16T08:48:56;100625.41;;;33.04;40.67
10852;BME280;5479;52.046;6.314;2022-08-16T08:51:29;100620.31;;;33.48;39.72
10852;BME280;5479;52.046;6.314;2022-08-16T08:53:57;100625.34;;;33.79;38.86
10852;BME280;5479;52.046;6.314;2022-08-16T08:56:26;100617.56;;;33.48;39.56
10852;BME280;5479;52.046;6.314;2022-08-16T08:58:58;100627.25;;;33.95;39.15
10852;BME280;5479;52.046;6.314;2022-08-16T09:01:32;100617.28;;;33.89;39.23
10852;BME280;5479;52.046;6.314;2022-08-16T09:04:03;100618.50;;;34.10;38.73
10852;BME280;5479;52.046;6.314;2022-08-16T09:06:32;100631.16;;;34.61;37.30
10852;BME280;5479;52.046;6.314;2022-08-16T09:09:00;100638.31;;;34.12;38.50
10852;BME280;5479;52.046;6.314;2022-08-16T09:11:31;100626.69;;;33.93;39.31
10852;BME280;5479;52.046;6.314;2022-08-16T09:14:02;100621.75;;;34.23;38.33
10852;BME280;5479;52.046;6.314;2022-08-16T09:16:32;100633.97;;;33.71;38.80
10852;BME280;5479;52.046;6.314;2022-08-16T09:18:59;100632.69;;;33.62;39.23
10852;BME280;5479;52.046;6.314;2022-08-16T09:21:30;100631.16;;;34.61;38.45
10852;BME280;5479;52.046;6.314;2022-08-16T09:23:58;100626.78;;;35.41;36.09
10852;BME280;5479;52.046;6.314;2022-08-16T09:26:26;100634.06;;;35.52;35.75
10852;BME280;5479;52.046;6.314;2022-08-16T09:28:56;100622.91;;;35.64;34.98
10852;BME280;5479;52.046;6.314;2022-08-16T09:31:27;100623.16;;;33.53;38.32
10852;BME280;5479;52.046;6.314;2022-08-16T09:33:57;100635.72;;;33.77;37.79
10852;BME280;5479;52.046;6.314;2022-08-16T09:36:30;100634.88;;;34.54;36.61
10852;BME280;5479;52.046;6.314;2022-08-16T09:38:58;100627.16;;;34.68;35.97
10852;BME280;5479;52.046;6.314;2022-08-16T09:41:26;100637.06;;;34.52;36.26
10852;BME280;5479;52.046;6.314;2022-08-16T09:43:54;100618.59;;;34.86;35.62
10852;BME280;5479;52.046;6.314;2022-08-16T09:46:22;100631.91;;;35.11;34.62
10852;BME280;5479;52.046;6.314;2022-08-16T09:48:51;100626.72;;;35.58;33.71
10852;BME280;5479;52.046;6.314;2022-08-16T09:51:23;100623.66;;;36.08;33.48
10852;BME280;5479;52.046;6.314;2022-08-16T09:53:53;100620.19;;;35.96;32.88
10852;BME280;5479;52.046;6.314;2022-08-16T09:56:26;100614.94;;;35.94;32.49
10852;BME280;5479;52.046;6.314;2022-08-16T09:58:57;100614.19;;;35.50;33.40
10852;BME280;5479;52.046;6.314;2022-08-16T10:01:26;100614.88;;;35.57;33.64
10852;BME280;5479;52.046;6.314;2022-08-16T10:03:56;100610.06;;;36.01;32.22
10852;BME280;5479;52.046;6.314;2022-08-16T10:06:27;100612.00;;;36.69;31.22
10852;BME280;5479;52.046;6.314;2022-08-16T10:08:55;100619.19;;;36.70;31.16
10852;BME280;5479;52.046;6.314;2022-08-16T10:11:23;100617.59;;;36.43;31.23
10852;BME280;5479;52.046;6.314;2022-08-16T10:14:09;100612.47;;;36.56;30.50
10852;BME280;5479;52.046;6.314;2022-08-16T10:16:37;100621.22;;;36.48;29.71
10852;BME280;5479;52.046;6.314;2022-08-16T10:19:06;100616.16;;;36.35;29.90
10852;BME280;5479;52.046;6.314;2022-08-16T10:21:35;100621.47;;;36.10;30.28
10852;BME280;5479;52.046;6.314;2022-08-16T10:24:02;100621.56;;;36.52;29.82
10852;BME280;5479;52.046;6.314;2022-08-16T10:26:35;100615.47;;;36.55;29.89
10852;BME280;5479;52.046;6.314;2022-08-16T10:29:06;100621.38;;;37.15;29.65
10852;BME280;5479;52.046;6.314;2022-08-16T10:31:35;100622.44;;;37.09;28.80
10852;BME280;5479;52.046;6.314;2022-08-16T10:34:04;100619.81;;;36.46;29.27
10852;BME280;5479;52.046;6.314;2022-08-16T10:36:32;100626.03;;;37.05;29.43
10852;BME280;5479;52.046;6.314;2022-08-16T10:39:03;100631.41;;;36.89;29.45
10852;BME280;5479;52.046;6.314;2022-08-16T10:41:35;100637.59;;;37.02;29.43
10852;BME280;5479;52.046;6.314;2022-08-16T10:44:03;100630.75;;;36.67;29.87
10852;BME280;5479;52.046;6.314;2022-08-16T10:46:31;100639.66;;;35.84;29.04
10852;BME280;5479;52.046;6.314;2022-08-16T10:49:04;100639.16;;;36.14;28.84
10852;BME280;5479;52.046;6.314;2022-08-16T10:51:35;100635.31;;;36.94;27.17
10852;BME280;5479;52.046;6.314;2022-08-16T10:54:13;100634.19;;;36.16;28.63
10852;BME280;5479;52.046;6.314;2022-08-16T10:56:43;100638.41;;;35.97;28.52
10852;BME280;5479;52.046;6.314;2022-08-16T10:59:16;100637.94;;;37.15;28.10
10852;BME280;5479;52.046;6.314;2022-08-16T11:01:50;100645.25;;;37.41;26.88
10852;BME280;5479;52.046;6.314;2022-08-16T11:04:21;100639.16;;;36.87;27.42
10852;BME280;5479;52.046;6.314;2022-08-16T11:06:49;100640.59;;;37.47;26.60
10852;BME280;5479;52.046;6.314;2022-08-16T11:09:18;100647.69;;;37.38;27.19
10852;BME280;5479;52.046;6.314;2022-08-16T11:11:46;100648.31;;;37.50;26.31
10852;BME280;5479;52.046;6.314;2022-08-16T11:14:27;100641.22;;;37.84;26.63
10852;BME280;5479;52.046;6.314;2022-08-16T11:16:55;100638.47;;;37.84;26.78
10852;BME280;5479;52.046;6.314;2022-08-16T11:19:28;100641.56;;;38.13;26.45
10852;BME280;5479;52.046;6.314;2022-08-16T11:21:58;100636.75;;;37.63;26.74
10852;BME280;5479;52.046;6.314;2022-08-16T11:24:28;100633.03;;;36.75;28.02
10852;BME280;5479;52.046;6.314;2022-08-16T11:26:56;100640.16;;;36.71;28.33
10852;BME280;5479;52.046;6.314;2022-08-16T11:29:24;100633.50;;;36.62;28.87
10852;BME280;5479;52.046;6.314;2022-08-16T11:32:01;100640.50;;;36.43;28.98
10852;BME280;5479;52.046;6.314;2022-08-16T11:34:31;100639.81;;;35.72;29.32
10852;BME280;5479;52.046;6.314;2022-08-16T11:37:02;100640.75;;;35.83;29.86
10852;BME280;5479;52.046;6.314;2022-08-16T11:39:35;100633.16;;;35.95;29.54
10852;BME280;5479;52.046;6.314;2022-08-16T11:42:03;100643.56;;;36.15;29.31
10852;BME280;5479;52.046;6.314;2022-08-16T11:44:38;100635.03;;;36.16;28.85
10852;BME280;5479;52.046;6.314;2022-08-16T11:47:15;100632.88;;;36.55;28.63
10852;BME280;5479;52.046;6.314;2022-08-16T11:49:49;100636.59;;;36.39;28.32
10852;BME280;5479;52.046;6.314;2022-08-16T11:52:19;100635.06;;;36.53;28.57
10852;BME280;5479;52.046;6.314;2022-08-16T11:54:51;100639.91;;;35.83;29.38
10852;BME280;5479;52.046;6.314;2022-08-16T11:57:19;100634.72;;;36.13;29.29
10852;BME280;5479;52.046;6.314;2022-08-16T11:59:52;100635.97;;;36.00;29.48
10852;BME280;5479;52.046;6.314;2022-08-16T12:02:22;100638.28;;;36.45;28.83
10852;BME280;5479;52.046;6.314;2022-08-16T12:04:51;100639.81;;;35.51;30.69
10852;BME280;5479;52.046;6.314;2022-08-16T12:07:20;100647.69;;;35.91;30.31
10852;BME280;5479;52.046;6.314;2022-08-16T12:09:57;100650.47;;;34.82;30.69
10852;BME280;5479;52.046;6.314;2022-08-16T12:12:26;100648.78;;;34.81;30.50
10852;BME280;5479;52.046;6.314;2022-08-16T12:14:54;100643.03;;;35.21;30.22
10852;BME280;5479;52.046;6.314;2022-08-16T12:17:22;100647.41;;;35.00;30.77
10852;BME280;5479;52.046;6.314;2022-08-16T12:19:50;100648.81;;;35.03;30.67
10852;BME280;5479;52.046;6.314;2022-08-16T12:22:18;100654.53;;;35.18;30.26
10852;BME280;5479;52.046;6.314;2022-08-16T12:24:53;100658.66;;;34.61;30.96
10852;BME280;5479;52.046;6.314;2022-08-16T12:27:24;100650.66;;;34.42;31.34
10852;BME280;5479;52.046;6.314;2022-08-16T12:29:55;100661.56;;;33.13;32.55
10852;BME280;5479;52.046;6.314;2022-08-16T12:32:26;100662.53;;;32.95;33.58
10852;BME280;5479;52.046;6.314;2022-08-16T12:34:55;100656.00;;;32.85;33.96
10852;BME280;5479;52.046;6.314;2022-08-16T12:37:28;100663.09;;;32.51;34.25
10852;BME280;5479;52.046;6.314;2022-08-16T12:39:56;100664.13;;;31.85;33.49
10852;BME280;5479;52.046;6.314;2022-08-16T12:42:26;100665.69;;;31.63;33.89
10852;BME280;5479;52.046;6.314;2022-08-16T12:44:54;100669.28;;;31.45;35.23
10852;BME280;5479;52.046;6.314;2022-08-16T12:47:30;100666.41;;;31.40;35.26
10852;BME280;5479;52.046;6.314;2022-08-16T12:50:17;100671.50;;;31.19;36.77
10852;BME280;5479;52.046;6.314;2022-08-16T12:52:45;100678.13;;;31.11;38.09
10852;BME280;5479;52.046;6.314;2022-08-16T12:55:15;100665.25;;;31.66;37.12
10852;BME280;5479;52.046;6.314;2022-08-16T12:58:02;100669.94;;;32.18;35.26
10852;BME280;5479;52.046;6.314;2022-08-16T13:00:34;100684.94;;;32.04;35.73
10852;BME280;5479;52.046;6.314;2022-08-16T13:03:03;100676.13;;;31.54;36.66
10852;BME280;5479;52.046;6.314;2022-08-16T13:05:38;100686.31;;;31.29;37.62
10852;BME280;5479;52.046;6.314;2022-08-16T13:08:27;100681.91;;;31.10;38.37
10852;BME280;5479;52.046;6.314;2022-08-16T13:11:04;100680.91;;;31.23;38.55